Time;durP1;ratioP1;P1;durP2;ratioP2;P2;SDS_P1;SDS_P2;PMS_P1;PMS_P2;Temp;Humidity;BMP_temperature;BMP_pressure;BME280_temperature;BME280_humidity;BME280_pressure;Samples;Min_cycle;Max_cycle;Signal;HPM_P1;HPM_P2
2022/05/08 00:02:03;;;;;;;14.65;12.95;;;12.20;13.20;;;;;;7365949;19;20014;-63
2022/05/08 00:04:36;;;;;;;14.82;12.70;;;12.20;13.10;;;;;;7365045;19;20021;-64
2022/05/08 00:07:07;;;;;;;17.05;12.60;;;12.10;14.10;;;;;;7363570;19;20023;-62
2022/05/08 00:09:39;;;;;;;13.93;12.40;;;12.10;14.40;;;;;;7382059;19;20009;-64
2022/05/08 00:12:11;;;;;;;15.93;14.25;;;12.20;14.80;;;;;;7365151;19;20013;-62
2022/05/08 00:14:45;;;;;;;16.80;13.68;;;12.10;13.80;;;;;;7362900;19;20085;-65
2022/05/08 00:17:18;;;;;;;16.75;14.23;;;12.10;15.00;;;;;;7362209;19;20010;-63
2022/05/08 00:19:49;;;;;;;16.92;15.23;;;12.10;15.50;;;;;;7361801;19;20017;-63
2022/05/08 00:22:19;;;;;;;17.40;14.80;;;12.00;15.80;;;;;;7366037;19;20013;-64
2022/05/08 00:25:06;;;;;;;15.10;13.50;;;11.90;16.30;;;;;;7363839;19;20011;-63
2022/05/08 00:27:36;;;;;;;17.30;13.68;;;12.00;17.50;;;;;;7384147;19;20018;-64
2022/05/08 00:30:07;;;;;;;18.98;14.93;;;12.00;17.40;;;;;;7359712;19;20070;-64
2022/05/08 00:32:36;;;;;;;16.20;14.45;;;12.00;17.40;;;;;;7364661;19;20010;-64
2022/05/08 00:35:09;;;;;;;17.73;14.50;;;11.90;17.00;;;;;;7363995;19;20030;-64
2022/05/08 00:37:40;;;;;;;18.00;14.80;;;11.90;18.00;;;;;;7364161;19;20014;-63
2022/05/08 00:40:13;;;;;;;17.83;14.38;;;11.90;18.00;;;;;;7360600;19;20014;-63
2022/05/08 00:42:44;;;;;;;20.77;16.80;;;11.90;17.70;;;;;;7386700;19;20007;-63
2022/05/08 00:45:14;;;;;;;16.73;15.02;;;11.90;18.50;;;;;;7360062;19;20016;-63
2022/05/08 00:47:46;;;;;;;19.35;14.57;;;11.90;18.30;;;;;;7364607;19;20038;-62
2022/05/08 00:50:16;;;;;;;16.77;15.02;;;11.90;19.10;;;;;;7359180;19;20019;-63
2022/05/08 00:52:46;;;;;;;19.10;14.88;;;11.90;19.30;;;;;;7362666;19;20236;-63
2022/05/08 00:55:18;;;;;;;17.55;14.60;;;11.90;19.50;;;;;;7362127;19;20386;-63
2022/05/08 00:57:49;;;;;;;16.98;15.18;;;11.80;19.60;;;;;;7384434;19;20086;-63
2022/05/08 01:00:20;;;;;;;17.15;15.40;;;11.70;20.30;;;;;;7360869;19;20014;-63
2022/05/08 01:02:50;;;;;;;17.83;15.93;;;11.80;20.40;;;;;;7363457;19;20014;-62
2022/05/08 01:05:20;;;;;;;18.00;16.00;;;11.80;20.50;;;;;;7361692;19;20023;-63
2022/05/08 01:07:50;;;;;;;21.90;15.68;;;11.90;19.90;;;;;;7360782;19;20017;-62
2022/05/08 01:10:23;;;;;;;17.02;15.13;;;11.90;18.90;;;;;;7358947;19;20085;-62
2022/05/08 01:12:53;;;;;;;18.40;15.07;;;12.00;18.50;;;;;;7382394;19;20091;-68
2022/05/08 01:15:23;;;;;;;17.30;15.43;;;12.00;19.10;;;;;;7381932;19;20024;-63
2022/05/08 01:17:54;;;;;;;16.85;14.80;;;11.90;19.50;;;;;;7361188;19;20011;-63
2022/05/08 01:20:24;;;;;;;17.20;14.52;;;11.90;19.30;;;;;;7360498;19;20470;-63
2022/05/08 01:22:57;;;;;;;17.13;15.43;;;11.80;20.00;;;;;;7363121;19;20021;-62
2022/05/08 01:25:27;;;;;;;19.58;15.38;;;11.80;19.90;;;;;;7359667;19;20028;-62
2022/05/08 01:27:57;;;;;;;18.42;15.15;;;11.60;21.40;;;;;;7361967;19;20021;-63
2022/05/08 01:30:27;;;;;;;17.48;15.00;;;11.50;21.70;;;;;;7380531;19;20010;-62
2022/05/08 01:32:57;;;;;;;20.25;16.55;;;11.50;22.10;;;;;;7362534;19;20439;-64
2022/05/08 01:35:27;;;;;;;23.00;16.33;;;11.50;22.70;;;;;;7360338;19;20593;-64
2022/05/08 01:38:00;;;;;;;18.35;16.30;;;11.50;22.70;;;;;;7360540;19;20007;-64
2022/05/08 01:40:30;;;;;;;19.23;17.10;;;11.50;22.20;;;;;;7359345;19;20014;-64
2022/05/08 01:43:00;;;;;;;19.13;17.15;;;11.60;21.60;;;;;;7363819;19;20014;-64
2022/05/08 01:45:30;;;;;;;19.83;16.23;;;11.60;20.90;;;;;;7388127;19;20018;-63
2022/05/08 01:50:43;;;;;;;19.88;17.70;;;11.60;21.40;;;;;;7368952;19;20011;-65
2022/05/08 01:53:16;;;;;;;21.95;17.50;;;11.50;21.40;;;;;;7368830;19;20007;-63
2022/05/08 01:55:47;;;;;;;20.55;17.23;;;11.40;22.30;;;;;;7367336;19;20011;-64
2022/05/08 01:58:16;;;;;;;18.35;16.45;;;11.40;23.00;;;;;;7364219;19;20037;-63
2022/05/08 02:00:50;;;;;;;18.45;16.45;;;11.30;23.00;;;;;;7391860;19;20498;-63
2022/05/08 02:03:22;;;;;;;23.50;16.73;;;11.30;22.90;;;;;;7369602;19;20021;-63
2022/05/08 02:05:53;;;;;;;18.33;16.42;;;11.40;23.00;;;;;;7366263;19;20855;-63
2022/05/08 02:08:25;;;;;;;20.35;16.48;;;11.30;23.20;;;;;;7362808;19;20094;-63
2022/05/08 02:10:55;;;;;;;18.45;16.55;;;11.30;24.10;;;;;;7368042;19;20462;-64
2022/05/08 02:13:25;;;;;;;18.45;16.45;;;11.40;23.00;;;;;;7368732;19;20020;-64
2022/05/08 02:15:55;;;;;;;19.95;16.73;;;11.30;23.20;;;;;;7364968;19;20006;-65
2022/05/08 02:18:25;;;;;;;17.85;15.60;;;11.20;24.40;;;;;;7383877;19;20018;-63
2022/05/08 02:20:54;;;;;;;18.27;16.27;;;11.20;24.60;;;;;;7366951;19;20014;-62
2022/05/08 02:23:27;;;;;;;20.02;17.58;;;11.10;25.30;;;;;;7367813;19;20010;-62
2022/05/08 02:25:57;;;;;;;20.27;17.23;;;11.10;25.80;;;;;;7365827;19;20014;-62
2022/05/08 02:28:26;;;;;;;20.25;17.15;;;11.00;26.00;;;;;;7362509;19;20089;-63
2022/05/08 02:30:56;;;;;;;25.58;16.73;;;10.80;28.20;;;;;;7369766;19;20458;-62
2022/05/08 02:33:26;;;;;;;17.67;15.82;;;10.90;29.00;;;;;;7389911;19;20027;-63
2022/05/08 02:35:56;;;;;;;18.83;16.83;;;10.90;28.10;;;;;;7365866;19;20006;-63
2022/05/08 02:38:28;;;;;;;19.45;16.95;;;10.90;28.40;;;;;;7361212;19;20006;-63
2022/05/08 02:40:58;;;;;;;19.33;17.25;;;10.80;29.00;;;;;;7368979;19;20011;-62
2022/05/08 02:43:28;;;;;;;22.80;18.48;;;10.60;30.20;;;;;;7368894;19;20014;-62
2022/05/08 02:46:00;;;;;;;19.50;17.38;;;10.60;31.10;;;;;;7364853;19;20033;-63
2022/05/08 02:48:30;;;;;;;23.83;18.08;;;10.60;30.70;;;;;;7383464;19;20010;-62
2022/05/08 02:51:00;;;;;;;19.65;17.50;;;10.60;30.40;;;;;;7367713;19;20040;-62
2022/05/08 02:53:33;;;;;;;20.20;17.83;;;10.50;31.00;;;;;;7366417;19;20498;-63
2022/05/08 02:58:45;;;;;;;17.90;16.02;;;10.30;32.40;;;;;;7361746;19;20506;-63
2022/05/08 03:01:15;;;;;;;20.13;16.88;;;10.20;32.50;;;;;;7367671;19;20006;-63
2022/05/08 03:03:45;;;;;;;20.05;17.13;;;10.10;33.60;;;;;;7388876;19;20050;-62
2022/05/08 03:06:15;;;;;;;19.35;17.10;;;10.20;34.00;;;;;;7365659;19;20014;-62
2022/05/08 03:08:48;;;;;;;20.75;16.75;;;10.10;33.90;;;;;;7360638;19;20017;-62
2022/05/08 03:11:30;;;;;;;22.05;18.35;;;10.10;34.30;;;;;;7367314;19;20014;-62
2022/05/08 03:14:01;;;;;;;23.05;17.25;;;10.10;34.40;;;;;;7365843;19;20021;-62
2022/05/08 03:16:31;;;;;;;19.77;16.52;;;10.10;33.90;;;;;;7365275;19;20017;-63
2022/05/08 03:19:01;;;;;;;18.52;15.85;;;9.90;35.90;;;;;;7360795;19;20015;-63
2022/05/08 03:21:31;;;;;;;21.23;18.38;;;10.00;36.70;;;;;;7388672;19;20355;-63
2022/05/08 03:24:03;;;;;;;19.00;16.70;;;10.00;36.20;;;;;;7365447;19;20478;-63
2022/05/08 03:26:33;;;;;;;18.92;17.02;;;10.00;36.70;;;;;;7365776;19;20484;-62
2022/05/08 03:29:03;;;;;;;20.08;17.00;;;9.90;37.10;;;;;;7360872;19;20007;-62
2022/05/08 03:31:33;;;;;;;19.88;17.63;;;9.80;38.20;;;;;;7367200;19;20006;-63
2022/05/08 03:36:35;;;;;;;20.35;17.92;;;9.80;39.50;;;;;;7387084;19;20018;-63
2022/05/08 03:39:07;;;;;;;24.05;17.52;;;9.90;39.30;;;;;;7359900;19;20010;-63
2022/05/08 03:41:37;;;;;;;21.15;17.35;;;10.00;38.30;;;;;;7367411;19;20011;-63
2022/05/08 03:44:07;;;;;;;19.58;17.55;;;10.10;37.20;;;;;;7365417;19;20032;-64
2022/05/08 03:46:37;;;;;;;20.17;16.73;;;10.10;37.10;;;;;;7364831;19;20031;-64
2022/05/08 03:49:07;;;;;;;22.85;17.55;;;10.10;37.10;;;;;;7359832;19;20010;-63
2022/05/08 03:51:37;;;;;;;24.15;18.52;;;10.20;37.10;;;;;;7388156;19;20028;-63
2022/05/08 03:54:09;;;;;;;21.17;17.65;;;10.20;36.50;;;;;;7364137;19;20021;-63
2022/05/08 03:56:39;;;;;;;20.38;17.73;;;10.20;35.20;;;;;;7365379;19;20498;-63
2022/05/08 03:59:09;;;;;;;20.27;18.05;;;10.20;35.10;;;;;;7359092;19;20006;-63
2022/05/08 04:01:39;;;;;;;20.33;17.23;;;10.20;34.90;;;;;;7365340;19;20815;-63
2022/05/08 04:04:09;;;;;;;21.80;17.38;;;10.20;35.30;;;;;;7364563;19;20010;-64
2022/05/08 04:06:39;;;;;;;21.83;18.02;;;10.20;36.10;;;;;;7384922;19;20642;-63
2022/05/08 04:09:11;;;;;;;18.60;16.35;;;10.20;35.00;;;;;;7359183;19;20017;-64
2022/05/08 04:11:41;;;;;;;18.95;16.67;;;10.30;34.60;;;;;;7366904;19;20033;-64
2022/05/08 04:14:11;;;;;;;20.30;17.10;;;10.40;33.20;;;;;;7361554;19;20014;-63
2022/05/08 04:16:41;;;;;;;18.92;16.35;;;10.20;32.90;;;;;;7363621;19;20025;-64
2022/05/08 04:19:11;;;;;;;21.08;16.33;;;10.20;32.90;;;;;;7359137;19;20011;-63
2022/05/08 04:21:41;;;;;;;18.00;15.95;;;10.20;32.90;;;;;;7387436;19;20482;-63
2022/05/08 04:24:17;;;;;;;19.90;17.33;;;10.20;32.50;;;;;;7363672;19;20020;-63
2022/05/08 04:26:47;;;;;;;18.55;15.95;;;10.30;32.40;;;;;;7364000;19;20114;-63
2022/05/08 04:29:17;;;;;;;19.13;17.05;;;10.40;30.90;;;;;;7358578;19;20070;-63
2022/05/08 04:31:47;;;;;;;17.60;15.70;;;10.40;30.00;;;;;;7366596;19;20006;-63
2022/05/08 04:34:17;;;;;;;20.00;17.15;;;10.70;28.00;;;;;;7363625;19;20022;-63
2022/05/08 04:36:47;;;;;;;19.67;17.08;;;11.20;26.40;;;;;;7382543;19;20030;-64
2022/05/08 04:39:20;;;;;;;22.60;17.63;;;10.80;26.70;;;;;;7358866;19;20537;-63
2022/05/08 04:41:50;;;;;;;19.65;16.58;;;10.40;28.00;;;;;;7365744;19;20020;-64
2022/05/08 04:44:20;;;;;;;19.63;16.95;;;10.30;29.90;;;;;;7362337;19;20010;-63
2022/05/08 04:46:50;;;;;;;22.42;17.10;;;10.50;29.30;;;;;;7364397;19;20012;-63
2022/05/08 04:49:20;;;;;;;18.10;16.20;;;10.20;30.70;;;;;;7356418;19;20466;-63
2022/05/08 04:51:50;;;;;;;19.95;16.67;;;10.30;32.90;;;;;;7386715;19;20016;-63
2022/05/08 04:54:23;;;;;;;19.15;15.93;;;10.40;31.00;;;;;;7363241;19;20002;-63
2022/05/08 04:56:53;;;;;;;19.05;17.00;;;10.50;31.30;;;;;;7363858;19;20016;-63
2022/05/08 04:59:22;;;;;;;20.10;17.13;;;10.50;30.10;;;;;;7358008;19;20027;-63
2022/05/08 05:01:52;;;;;;;21.42;16.90;;;10.60;29.30;;;;;;7364736;19;20011;-63
2022/05/08 05:04:22;;;;;;;19.17;16.40;;;10.70;28.80;;;;;;7362315;19;20496;-63
2022/05/08 05:06:52;;;;;;;21.92;16.85;;;10.80;29.50;;;;;;7385045;19;20006;-63
2022/05/08 05:09:25;;;;;;;20.83;17.17;;;10.70;29.30;;;;;;7356585;19;20465;-63
2022/05/08 05:11:55;;;;;;;18.85;16.88;;;10.90;29.50;;;;;;7363749;19;20011;-63
2022/05/08 05:14:25;;;;;;;22.13;17.25;;;11.30;27.90;;;;;;7361474;19;20482;-63
2022/05/08 05:16:54;;;;;;;19.90;17.52;;;11.80;21.10;;;;;;7362068;19;20090;-64
2022/05/08 05:19:24;;;;;;;21.42;17.70;;;12.00;18.90;;;;;;7361568;19;20021;-63
2022/05/08 05:21:54;;;;;;;18.70;16.50;;;11.90;18.00;;;;;;7375980;19;20040;-64
2022/05/08 05:24:26;;;;;;;18.52;16.42;;;11.60;21.20;;;;;;7391036;19;20010;-64
2022/05/08 05:26:56;;;;;;;21.88;17.67;;;11.50;23.10;;;;;;7368541;19;20006;-63
2022/05/08 05:29:26;;;;;;;20.77;16.77;;;11.20;24.00;;;;;;7364691;19;20057;-63
2022/05/08 05:31:56;;;;;;;20.67;16.45;;;11.20;25.10;;;;;;7371527;19;20014;-63
2022/05/08 05:37:02;;;;;;;17.85;15.95;;;11.50;23.20;;;;;;7367818;19;20086;-64
2022/05/08 05:39:35;;;;;;;17.60;15.75;;;11.40;25.20;;;;;;7384964;19;20018;-64
2022/05/08 05:42:06;;;;;;;18.80;15.85;;;11.40;23.90;;;;;;7369531;19;20057;-62
2022/05/08 05:44:36;;;;;;;19.33;16.33;;;11.50;23.90;;;;;;7367420;19;20479;-62
2022/05/08 05:49:48;;;;;;;20.50;17.42;;;11.40;24.40;;;;;;7363041;19;20022;-62
2022/05/08 05:52:18;;;;;;;19.50;17.42;;;11.60;23.80;;;;;;7370619;19;20016;-63
2022/05/08 05:54:50;;;;;;;21.48;17.02;;;11.60;23.20;;;;;;7390461;19;20006;-64
2022/05/08 05:57:22;;;;;;;;;;;11.60;23.20;;;;;;7367371;19;20002;-62
2022/05/08 05:59:52;;;;;;;22.90;18.77;;;11.70;24.10;;;;;;7363334;19;19919;-62
2022/05/08 06:02:22;;;;;;;19.23;17.08;;;11.70;23.20;;;;;;7369812;19;20319;-63
2022/05/08 06:04:52;;;;;;;20.08;17.88;;;11.80;23.30;;;;;;7368229;19;20017;-63
2022/05/08 06:07:22;;;;;;;19.17;17.02;;;11.70;23.20;;;;;;7369057;19;20029;-64
2022/05/08 06:09:54;;;;;;;18.58;16.58;;;11.60;21.00;;;;;;7384697;19;20007;-64
2022/05/08 06:12:24;;;;;;;19.83;17.15;;;11.80;22.20;;;;;;7369710;19;20016;-64
2022/05/08 06:14:54;;;;;;;21.63;17.02;;;11.80;21.30;;;;;;7366377;19;20448;-63
2022/05/08 06:17:24;;;;;;;22.77;18.10;;;11.60;23.20;;;;;;7367467;19;20017;-63
2022/05/08 06:19:54;;;;;;;23.38;20.88;;;11.80;23.30;;;;;;7362870;19;20123;-64
2022/05/08 06:22:24;;;;;;;25.02;21.38;;;12.00;22.20;;;;;;7370372;19;20019;-63
2022/05/08 06:24:57;;;;;;;26.08;21.42;;;12.10;20.70;;;;;;7369428;19;20466;-63
2022/05/08 06:27:27;;;;;;;24.90;19.98;;;12.30;19.20;;;;;;7389042;19;20014;-63
2022/05/08 06:29:59;;;;;;;21.88;19.23;;;12.30;17.90;;;;;;7362044;19;20011;-63
2022/05/08 06:32:29;;;;;;;21.85;19.35;;;12.30;19.00;;;;;;7369559;19;20080;-63
2022/05/08 06:35:18;;;;;;;24.02;19.98;;;12.10;18.30;;;;;;7365543;19;20008;-64
2022/05/08 06:37:47;;;;;;;22.20;18.90;;;12.30;18.60;;;;;;7367070;19;20023;-64
2022/05/08 06:40:21;;;;;;;26.02;20.13;;;12.40;19.60;;;;;;7362427;19;20114;-64
2022/05/08 06:42:51;;;;;;;22.90;18.98;;;12.30;17.80;;;;;;7391387;19;20017;-63
2022/05/08 06:45:24;;;;;;;22.27;19.35;;;12.50;17.50;;;;;;7363971;19;20011;-63
2022/05/08 06:47:54;;;;;;;24.27;20.33;;;12.60;16.80;;;;;;7369028;19;20101;-63
2022/05/08 06:50:24;;;;;;;20.55;18.33;;;12.70;15.00;;;;;;7363086;19;20077;-64
2022/05/08 06:52:54;;;;;;;24.25;18.60;;;12.80;15.90;;;;;;7368012;19;20021;-62
2022/05/08 06:55:26;;;;;;;23.98;19.35;;;12.60;15.70;;;;;;7363618;19;20014;-63
2022/05/08 06:57:56;;;;;;;23.52;19.10;;;12.80;17.10;;;;;;7365629;19;20010;-63
2022/05/08 07:03:09;;;;;;;22.05;18.90;;;12.80;14.30;;;;;;7364468;19;20013;-62
2022/05/08 07:05:40;;;;;;;22.40;18.63;;;12.90;14.60;;;;;;7364862;19;20013;-62
2022/05/08 07:08:10;;;;;;;20.63;17.73;;;12.80;13.90;;;;;;7363754;19;20006;-64
2022/05/08 07:10:43;;;;;;;20.92;17.63;;;13.00;13.50;;;;;;7364011;19;20023;-63
2022/05/08 07:13:12;;;;;;;18.70;16.45;;;13.00;14.90;;;;;;7368071;19;20027;-62
2022/05/08 07:15:43;;;;;;;20.30;17.20;;;13.10;13.90;;;;;;7383841;19;20089;-62
2022/05/08 07:18:27;;;;;;;21.67;17.25;;;13.10;12.90;;;;;;7357885;19;20014;-62
2022/05/08 07:20:59;;;;;;;19.65;17.35;;;13.20;13.00;;;;;;7367120;19;20007;-63
2022/05/08 07:23:29;;;;;;;20.60;15.60;;;13.20;11.60;;;;;;7367539;19;20018;-63
2022/05/08 07:26:01;;;;;;;18.30;15.90;;;13.40;11.00;;;;;;7362805;19;20464;-63
2022/05/08 07:28:31;;;;;;;18.70;15.30;;;13.60;10.20;;;;;;7361082;19;20015;-64
2022/05/08 07:31:02;;;;;;;20.20;17.00;;;13.60;8.90;;;;;;7366894;19;20013;-63
2022/05/08 07:33:34;;;;;;;20.33;16.33;;;13.60;9.40;;;;;;7388597;19;20021;-64
2022/05/08 07:36:13;;;;;;;18.10;15.23;;;13.90;10.40;;;;;;7364193;19;20010;-64
2022/05/08 07:38:45;;;;;;;19.63;15.65;;;14.20;6.90;;;;;;7359031;19;20015;-63
2022/05/08 07:41:19;;;;;;;20.20;15.40;;;14.30;7.00;;;;;;7362782;19;20084;-63
2022/05/08 07:43:49;;;;;;;19.83;15.98;;;14.20;5.10;;;;;;7365326;19;20018;-63
2022/05/08 07:46:19;;;;;;;17.33;15.48;;;14.10;6.00;;;;;;7364519;19;20010;-63
2022/05/08 07:48:49;;;;;;;17.92;15.20;;;14.10;6.30;;;;;;7382429;19;20010;-63
2022/05/08 07:51:19;;;;;;;17.27;15.38;;;14.30;6.10;;;;;;7365876;19;20082;-63
2022/05/08 07:53:49;;;;;;;17.38;15.55;;;14.50;4.70;;;;;;7365037;19;20010;-63
2022/05/08 07:56:21;;;;;;;16.00;14.27;;;14.50;5.00;;;;;;7363711;19;20014;-63
2022/05/08 07:58:51;;;;;;;17.55;15.05;;;14.60;3.40;;;;;;7358811;19;20018;-63
2022/05/08 08:01:21;;;;;;;16.42;14.73;;;14.60;3.90;;;;;;7365820;19;20013;-62
2022/05/08 08:04:11;;;;;;;16.40;13.38;;;14.40;3.30;;;;;;7364727;19;20011;-63
2022/05/08 08:06:41;;;;;;;16.13;14.43;;;14.60;3.50;;;;;;7386452;19;20078;-63
2022/05/08 08:09:11;;;;;;;16.40;14.60;;;15.00;2.40;;;;;;7358275;19;20438;-63
2022/05/08 08:11:43;;;;;;;16.63;14.38;;;15.20;1.50;;;;;;7364797;19;20590;-63
2022/05/08 08:14:13;;;;;;;15.20;13.70;;;15.40;1.00;;;;;;7364206;19;20010;-62
2022/05/08 08:17:03;;;;;;;16.20;13.90;;;15.40;1.00;;;;;;7363506;19;20010;-62
2022/05/08 08:19:33;;;;;;;13.70;12.27;;;15.50;1.00;;;;;;7357993;19;20011;-62
2022/05/08 08:22:03;;;;;;;14.27;12.40;;;15.30;1.00;;;;;;7364464;19;20006;-63
2022/05/08 08:24:34;;;;;;;13.88;11.82;;;15.50;1.00;;;;;;7385033;19;20022;-64
2022/05/08 08:27:07;;;;;;;14.32;12.70;;;15.60;1.00;;;;;;7363115;19;20485;-63
2022/05/08 08:29:37;;;;;;;15.50;13.20;;;15.60;1.00;;;;;;7359998;19;20018;-63
2022/05/08 08:32:07;;;;;;;14.70;12.48;;;15.60;1.00;;;;;;7365063;19;20093;-63
2022/05/08 08:34:37;;;;;;;13.65;12.25;;;16.00;1.00;;;;;;7362100;19;20010;-63
2022/05/08 08:37:08;;;;;;;16.60;12.05;;;15.70;1.00;;;;;;7365165;19;20081;-63
2022/05/08 08:39:38;;;;;;;13.48;12.05;;;15.80;1.00;;;;;;7383563;19;20010;-63
2022/05/08 08:42:21;;;;;;;15.90;11.88;;;15.40;1.00;;;;;;7364359;19;20048;-63
2022/05/08 08:47:51;;;;;;;14.13;11.82;;;16.00;1.00;;;;;;7361600;19;20099;-63
2022/05/08 08:50:26;;;;;;;13.63;12.23;;;16.00;1.00;;;;;;7360190;19;20600;-63
2022/05/08 08:52:56;;;;;;;14.43;12.13;;;16.40;1.00;;;;;;7364336;19;20093;-64
2022/05/08 08:55:26;;;;;;;13.43;11.93;;;16.40;1.00;;;;;;7360884;19;20017;-63
2022/05/08 08:57:59;;;;;;;18.85;12.02;;;16.50;1.00;;;;;;7363953;19;20014;-64
2022/05/08 09:00:29;;;;;;;13.18;11.10;;;17.00;1.00;;;;;;7380922;19;20506;-64
2022/05/08 09:02:59;;;;;;;12.73;11.20;;;17.20;1.00;;;;;;7362750;19;20010;-63
2022/05/08 09:05:28;;;;;;;13.80;11.90;;;17.10;1.00;;;;;;7361608;19;20017;-63
2022/05/08 09:08:00;;;;;;;13.57;11.15;;;16.80;1.00;;;;;;7363687;19;20018;-63
2022/05/08 09:10:35;;;;;;;12.40;11.10;;;16.80;1.00;;;;;;7359178;19;20062;-64
2022/05/08 09:13:11;;;;;;;13.32;11.93;;;16.80;1.00;;;;;;7364586;19;20020;-64
2022/05/08 09:15:41;;;;;;;13.40;12.10;;;16.50;1.00;;;;;;7382554;19;20013;-64
2022/05/08 09:18:12;;;;;;;13.50;11.93;;;17.00;1.00;;;;;;7361601;19;20030;-64
2022/05/08 09:20:43;;;;;;;13.68;11.68;;;17.00;1.00;;;;;;7358551;19;20097;-62
2022/05/08 09:23:15;;;;;;;12.57;11.27;;;17.10;1.00;;;;;;7363734;19;20019;-63
2022/05/08 09:25:50;;;;;;;14.15;11.25;;;17.30;1.00;;;;;;7361483;19;20014;-63
2022/05/08 09:28:42;;;;;;;13.38;11.45;;;17.40;1.00;;;;;;7358747;19;20039;-63
2022/05/08 09:31:13;;;;;;;12.80;11.45;;;17.50;1.00;;;;;;7362661;19;20018;-64
2022/05/08 09:33:45;;;;;;;15.38;10.90;;;17.70;1.00;;;;;;7384443;19;20018;-63
2022/05/08 09:36:21;;;;;;;13.32;11.93;;;17.70;1.00;;;;;;7361772;19;20514;-63
2022/05/08 09:38:53;;;;;;;13.30;11.77;;;17.70;1.00;;;;;;7356007;19;20423;-63
2022/05/08 09:41:24;;;;;;;13.23;11.38;;;17.70;1.00;;;;;;7362781;19;20491;-63
2022/05/08 09:43:58;;;;;;;15.30;11.30;;;18.00;1.00;;;;;;7361929;19;20014;-63
2022/05/08 09:46:33;;;;;;;;;;;17.90;1.00;;;;;;7361854;19;20017;-63
2022/05/08 09:49:04;;;;;;;11.73;9.90;;;18.30;1.00;;;;;;7357359;19;19923;-63
2022/05/08 09:51:35;;;;;;;11.90;10.63;;;18.50;1.00;;;;;;7382038;19;20018;-63
2022/05/08 09:54:05;;;;;;;12.20;10.88;;;18.70;1.00;;;;;;7359819;19;20017;-64
2022/05/08 09:56:37;;;;;;;15.90;10.60;;;18.60;1.00;;;;;;7362039;19;20758;-63
2022/05/08 09:59:11;;;;;;;13.32;10.23;;;18.50;1.00;;;;;;7358387;19;20010;-63
2022/05/08 10:01:42;;;;;;;11.73;10.40;;;18.90;1.00;;;;;;7361754;19;20006;-64
2022/05/08 10:04:12;;;;;;;10.18;9.02;;;18.90;1.00;;;;;;7361095;19;20095;-63
2022/05/08 10:06:43;;;;;;;10.52;9.50;;;18.90;1.00;;;;;;7389175;19;20027;-63
2022/05/08 10:14:49;;;;;;;10.77;9.68;;;19.20;1.00;;;;;;7364317;19;20007;-64
2022/05/08 10:17:30;;;;;;;11.98;9.57;;;19.30;1.00;;;;;;7368142;19;20025;-64
2022/05/08 10:20:00;;;;;;;14.48;10.40;;;19.40;1.00;;;;;;7363606;19;20079;-64
2022/05/08 10:22:49;;;;;;;12.50;10.20;;;19.40;1.00;;;;;;7368188;19;20010;-63
2022/05/08 10:25:19;;;;;;;10.75;9.45;;;19.50;1.00;;;;;;7366011;19;20684;-63
2022/05/08 10:28:09;;;;;;;11.32;9.15;;;19.50;1.00;;;;;;7390843;19;20494;-63
2022/05/08 10:30:42;;;;;;;9.35;8.40;;;19.40;1.00;;;;;;7364803;19;20017;-63
2022/05/08 10:33:12;;;;;;;10.40;8.00;;;19.40;1.00;;;;;;7369082;19;20498;-64
2022/05/08 10:35:41;;;;;;;11.60;8.32;;;19.80;1.00;;;;;;7366347;19;20082;-63
2022/05/08 10:38:25;;;;;;;10.55;7.65;;;19.50;1.00;;;;;;7367213;19;20082;-64
2022/05/08 10:40:55;;;;;;;10.60;8.10;;;19.70;1.00;;;;;;7366551;19;20031;-64
2022/05/08 10:43:32;;;;;;;9.80;7.70;;;19.80;1.00;;;;;;7367633;19;20039;-63
2022/05/08 10:46:26;;;;;;;11.77;7.75;;;19.80;1.00;;;;;;7364935;19;20026;-64
2022/05/08 10:48:57;;;;;;;7.75;7.00;;;19.60;1.00;;;;;;7363205;19;20022;-64
2022/05/08 10:51:28;;;;;;;8.48;7.60;;;20.20;1.00;;;;;;7390155;19;20014;-63
2022/05/08 10:54:11;;;;;;;6.10;5.50;;;20.10;1.00;;;;;;7366002;19;20007;-63
2022/05/08 10:56:50;;;;;;;5.85;4.32;;;20.00;1.00;;;;;;7366228;19;20010;-63
2022/05/08 10:59:20;;;;;;;6.28;4.43;;;20.50;1.00;;;;;;7360788;19;20500;-64
2022/05/08 11:01:56;;;;;;;7.18;4.53;;;20.50;1.00;;;;;;7367699;19;20526;-63
2022/05/08 11:04:25;;;;;;;5.13;4.63;;;20.70;1.00;;;;;;7366964;19;20014;-63
2022/05/08 11:06:56;;;;;;;6.05;4.13;;;20.70;1.00;;;;;;7366693;19;20017;-63
2022/05/08 11:09:26;;;;;;;5.07;4.47;;;20.60;1.00;;;;;;7383241;19;20518;-63
2022/05/08 11:11:56;;;;;;;5.50;4.35;;;20.80;1.00;;;;;;7366957;19;20095;-63
2022/05/08 11:14:28;;;;;;;5.05;4.50;;;20.60;1.00;;;;;;7365753;19;20010;-63
2022/05/08 11:17:16;;;;;;;6.00;4.78;;;21.10;1.00;;;;;;7363868;19;20002;-63
2022/05/08 11:19:57;;;;;;;7.78;5.05;;;21.10;1.00;;;;;;7361324;19;20018;-63
2022/05/08 11:22:27;;;;;;;7.40;5.32;;;20.90;1.00;;;;;;7367506;19;20017;-63
2022/05/08 11:25:15;;;;;;;7.25;5.95;;;20.80;1.00;;;;;;7365040;19;20023;-63
2022/05/08 11:27:52;;;;;;;6.05;5.18;;;20.80;1.00;;;;;;7388159;19;20780;-63
2022/05/08 11:30:30;;;;;;;7.60;5.53;;;21.10;1.00;;;;;;7361742;19;20257;-63
2022/05/08 11:38:34;;;;;;;5.80;4.90;;;21.00;1.00;;;;;;7363948;19;20091;-63
2022/05/08 11:41:09;;;;;;;6.10;4.28;;;20.80;1.00;;;;;;7363369;19;20010;-63
2022/05/08 11:43:44;;;;;;;6.07;5.18;;;20.90;1.00;;;;;;7365615;19;20698;-63
2022/05/08 11:46:16;;;;;;;6.78;4.50;;;20.90;1.00;;;;;;7364999;19;20402;-63
2022/05/08 11:48:55;;;;;;;8.70;5.05;;;21.00;1.00;;;;;;7379980;19;20039;-66
2022/05/08 11:51:25;;;;;;;8.48;4.90;;;21.20;1.00;;;;;;7387505;19;20014;-61
2022/05/08 11:53:56;;;;;;;6.10;4.88;;;21.70;1.00;;;;;;7365217;19;20010;-61
2022/05/08 11:56:30;;;;;;;7.03;4.65;;;21.50;1.00;;;;;;7365104;19;20074;-61
2022/05/08 11:59:01;;;;;;;5.95;4.57;;;21.30;1.00;;;;;;7355878;19;20416;-61
2022/05/08 12:01:33;;;;;;;5.18;4.68;;;21.60;1.00;;;;;;7366231;19;20021;-59
2022/05/08 12:04:27;;;;;;;7.00;4.45;;;21.30;1.00;;;;;;7364001;19;20449;-61
2022/05/08 12:07:02;;;;;;;5.60;4.13;;;21.20;1.00;;;;;;7364680;19;20019;-62
2022/05/08 12:09:33;;;;;;;6.45;4.50;;;21.00;1.00;;;;;;7378540;19;20014;-60
2022/05/08 12:12:25;;;;;;;5.05;4.55;;;20.80;1.00;;;;;;7365164;19;20002;-61
2022/05/08 12:14:59;;;;;;;5.68;3.97;;;21.00;1.00;;;;;;7363669;19;20034;-61
2022/05/08 12:17:31;;;;;;;5.70;3.92;;;21.40;1.00;;;;;;7364636;19;20119;-61
2022/05/08 12:20:03;;;;;;;5.15;4.07;;;21.60;1.00;;;;;;7358050;19;20006;-61
2022/05/08 12:22:33;;;;;;;5.72;3.90;;;21.60;1.00;;;;;;7364463;19;20010;-61
2022/05/08 12:25:03;;;;;;;4.68;4.13;;;21.60;1.00;;;;;;7363921;19;20490;-62
2022/05/08 12:27:34;;;;;;;3.97;3.53;;;21.40;1.00;;;;;;7386092;19;20651;-61
2022/05/08 12:30:06;;;;;;;4.15;3.50;;;21.30;1.00;;;;;;7356284;19;20097;-61
2022/05/08 12:32:41;;;;;;;6.00;3.92;;;21.50;1.00;;;;;;7363213;19;20010;-61
2022/05/08 12:35:14;;;;;;;5.22;4.18;;;21.50;1.00;;;;;;7362857;19;20052;-61
2022/05/08 12:37:47;;;;;;;4.85;4.07;;;21.40;1.00;;;;;;7364293;19;20509;-60
2022/05/08 12:40:19;;;;;;;4.20;3.70;;;21.90;1.00;;;;;;7355120;19;20014;-61
2022/05/08 12:42:48;;;;;;;7.40;3.72;;;21.80;1.00;;;;;;7386033;19;20018;-59
2022/05/08 12:45:18;;;;;;;6.82;4.03;;;21.90;1.00;;;;;;7361576;19;20022;-59
2022/05/08 12:47:48;;;;;;;4.88;3.67;;;22.40;1.00;;;;;;7363828;19;20054;-61
2022/05/08 12:50:21;;;;;;;6.45;3.67;;;22.40;1.00;;;;;;7355990;19;20010;-61
2022/05/08 12:52:55;;;;;;;6.13;3.88;;;22.10;1.00;;;;;;7363063;19;20497;-59
2022/05/08 12:55:25;;;;;;;5.47;4.07;;;22.30;1.00;;;;;;7361786;19;20067;-61
2022/05/08 13:00:38;;;;;;;6.18;3.85;;;22.10;1.00;;;;;;7377209;19;20010;-60
2022/05/08 13:03:11;;;;;;;5.03;3.92;;;21.90;1.00;;;;;;7364085;19;20494;-60
2022/05/08 13:05:43;;;;;;;6.60;4.40;;;21.80;1.00;;;;;;7361907;19;20073;-60
2022/05/08 13:08:13;;;;;;;6.25;3.78;;;22.20;1.00;;;;;;7363077;19;20038;-59
2022/05/08 13:10:43;;;;;;;4.63;4.05;;;21.90;1.00;;;;;;7355353;19;20018;-60
2022/05/08 13:13:13;;;;;;;4.97;3.80;;;22.10;1.00;;;;;;7362493;19;20020;-60
2022/05/08 13:15:43;;;;;;;4.60;3.88;;;22.00;1.00;;;;;;7382348;19;20031;-60
2022/05/08 13:18:13;;;;;;;4.43;3.58;;;22.30;1.00;;;;;;7364828;19;20006;-60
2022/05/08 13:20:46;;;;;;;6.10;3.95;;;22.00;1.00;;;;;;7354099;19;20011;-61
2022/05/08 13:23:16;;;;;;;4.60;4.20;;;22.30;1.00;;;;;;7363569;19;20526;-60
2022/05/08 13:25:46;;;;;;;5.18;4.20;;;22.10;1.00;;;;;;7361791;19;20098;-60
2022/05/08 13:28:15;;;;;;;7.10;3.78;;;21.90;1.00;;;;;;7362410;19;20037;-60
2022/05/08 13:30:45;;;;;;;5.95;4.40;;;21.60;1.00;;;;;;7379221;19;20025;-60
2022/05/08 13:33:16;;;;;;;5.65;4.03;;;21.80;1.00;;;;;;7363892;19;20017;-60